Current Conditions

Updated: 20-Nov-2018 04:06 AM  
Summary / Temperature Wind Rain






Feels like: 37°F

1-hour difference
0.4°F 0.4°F colder than last hour.

24-hour difference
1.4°F1.4°F colder than yesterday at this time.

  Today Yesterday
High: 41.4°F
12:00 AM
66.3°F
12:54 PM
Low: 36.7°F
4:03 AM
35.6°F
5:13 AM
Calm NE
0.0
Gust:  0.0 mph
0 Beaufort - Calm

Today: 1.2 - 1:56 AM
Month: 8.1 mph - Nov 8
Rain Today: 0.00 in
Current Rate (/hr): 0.000 in
Max Rate (/hr):
Rain Yesterday: 0.00 in
Storm Rain: 0.00 in
This Month: 0.00 in
Season Total: 0.40 in
Last Rain Event: 46 days ago
Humidity / Barometer Sun / Moon
Humidity: 89  
Dew Point: 33.8°F Decreased 0.4°F in the last hour.
Barometer: 30.018 inHg  
Baro Trend: Steady
Sunrise: 6:38 AM
Sunset: 4:45 PM
Moonrise: 3:40 PM
Moonset: 3:45 AM
Sky Conditions UV Index
Summary: Mist, Clear
Visibility: 1 ½ miles
Clouds: None
KVIS - 3:56 AM PST
Current: 0.0  None 
Tuesday: 2.5  Low 
Wednesday: 2.5  Low 
Air Quality Fire Danger
 Unhealthy 
Ozone 1 ppb
PM 2.5 60 μg/m3
4:00 AM PST
Current: 0  Low 

Local Alerts Local Forecast
Local NWS Alerts
Today

Hazy

High 71
Tonight

Hazy

Low 43
Wed

Rain

High 69
Wed night

Rain

Low 46
Thu

Chance of
Rain
High 62
Thu night

Rain
Showers
Low 40
Fri

Rain
Showers
High 60

Local Radar Local Satellite Neighborhood Cam Sky Cam
Local Radar Local Satellite Neighborhood Cam Sky Cam


Nearby Personal Stations

Weather Underground PWS KCAEXETE7     Weather Underground PWS KCAEXETE6     Weather Underground PWS KCAEXETE11

Nearby Airport Stations

KVIS - Visalia, California, USA
Distance from station: W 14mi, 23km
Updated: Tue, 20-Nov-2018 3:56am PST
Mist, Clear
Mist, Clear
 Wind from SSE
Wind: SSE 3 mph , 6 km/h
Temperature: 37°F , 3°C
Dew Point: 36°F , 2°C
Humidity: 93%
Barometer: 30.02 inHg , 1016.6 hPa
Summary: Mist
Clouds: Clear
Visibility: 1 1/2 miles , 2 km
2018/11/20 11:56 KVIS 201156Z AUTO 15003KT 1 1/2SM BR CLR 03/02 A3002 RMK AO2 SLP175 T00280017 10067 20028 55004
KPTV - Porterville, California, USA
Distance from station: SSE 19mi, 31km
Updated: Tue, 20-Nov-2018 2:56am PST
Haze
Haze
 Wind from SE
Wind: SE 3 mph , 6 km/h
Temperature: 37°F , 3°C
Dew Point: 30°F , -1°C
Humidity: 75%
Barometer: 30.02 inHg , 1016.6 hPa
Summary: Haze
Visibility: 5 miles , 8 km
2018/11/20 10:56 KPTV 201056Z AUTO 14003KT 5SM HZ 03/M01 A3002 RMK AO2 SLP180 T00331006 $

Metar display script from Saratoga-Weather.org



Visitor Map